KMEM/MEM METAR and TAF weather

Enter ICAO airport designator
Station Type Date Time Source
KMEM METAR 2019/08/22 04:54 UTC NOAA

KMEM 220454Z 18006KT 10SM CLR 28/23 A2997 RMK AO2 SLP143 T02780228


Station Type Date Time Source
KMEM Decoded METAR 2019/08/22 04:54 UTC NOAA

Station name not available
Aug 22, 2019 - 12:54 AM EDT / 2019.08.22 0454 UTC
Wind: from the S (180 degrees) at 7 MPH (6 KT):0
Visibility: 10 mile(s):0
Sky conditions: clear
Temperature: 82.0 F (27.8 C)
Dew Point: 73.0 F (22.8 C)
Relative Humidity: 74%
Pressure (altimeter): 29.97 in. Hg (1014 hPa)
ob: KMEM 220454Z 18006KT 10SM CLR 28/23 A2997 RMK AO2 SLP143 T02780228
cycle: 5

Station Type Date Time Source
KMEM TAF 2019/08/22 03:03 UTC NOAA

TAF
AMD KMEM 220300Z 2203/2306 17006KT P6SM VCSH SCT040 BKN250
TEMPO 2212/2216 -SHRA BKN040
FM222100 22008KT P6SM VCTS BKN045CB BKN150
FM230300 21006KT P6SM VCSH SCT060 BKN100

Example: see airport list